sensor_id;sensor_type;location;lat;lon;timestamp;P1;durP1;ratioP1;P2;durP2;ratioP2
1925;SDS011;964;42.606;23.588;2023-02-10T00:01:34;11.23;;;5.60;;
1925;SDS011;964;42.606;23.588;2023-02-10T00:04:01;12.70;;;5.83;;
1925;SDS011;964;42.606;23.588;2023-02-10T00:06:28;10.80;;;7.87;;
1925;SDS011;964;42.606;23.588;2023-02-10T00:08:55;12.37;;;6.57;;
1925;SDS011;964;42.606;23.588;2023-02-10T00:11:24;12.80;;;7.63;;
1925;SDS011;964;42.606;23.588;2023-02-10T00:14:06;14.57;;;7.73;;
1925;SDS011;964;42.606;23.588;2023-02-10T00:16:33;17.23;;;7.70;;
1925;SDS011;964;42.606;23.588;2023-02-10T00:19:00;9.73;;;6.37;;
1925;SDS011;964;42.606;23.588;2023-02-10T00:21:27;4.03;;;3.73;;
1925;SDS011;964;42.606;23.588;2023-02-10T00:23:53;14.13;;;7.50;;
1925;SDS011;964;42.606;23.588;2023-02-10T00:26:20;23.70;;;10.53;;
1925;SDS011;964;42.606;23.588;2023-02-10T00:28:47;8.67;;;6.60;;
1925;SDS011;964;42.606;23.588;2023-02-10T00:31:15;21.27;;;7.10;;
1925;SDS011;964;42.606;23.588;2023-02-10T00:33:43;11.87;;;6.60;;
1925;SDS011;964;42.606;23.588;2023-02-10T00:36:11;17.63;;;8.57;;
1925;SDS011;964;42.606;23.588;2023-02-10T00:38:39;14.70;;;7.10;;
1925;SDS011;964;42.606;23.588;2023-02-10T00:41:07;10.07;;;5.73;;
1925;SDS011;964;42.606;23.588;2023-02-10T00:43:36;25.52;;;13.05;;
1925;SDS011;964;42.606;23.588;2023-02-10T00:46:04;17.80;;;8.83;;
1925;SDS011;964;42.606;23.588;2023-02-10T00:48:32;11.53;;;4.67;;
1925;SDS011;964;42.606;23.588;2023-02-10T00:50:59;9.43;;;4.93;;
1925;SDS011;964;42.606;23.588;2023-02-10T00:53:25;11.93;;;6.43;;
1925;SDS011;964;42.606;23.588;2023-02-10T00:55:52;23.33;;;10.73;;
1925;SDS011;964;42.606;23.588;2023-02-10T00:58:20;16.40;;;8.47;;
1925;SDS011;964;42.606;23.588;2023-02-10T01:00:47;15.90;;;8.47;;
1925;SDS011;964;42.606;23.588;2023-02-10T01:03:14;6.67;;;4.70;;
1925;SDS011;964;42.606;23.588;2023-02-10T01:05:42;17.50;;;7.90;;
1925;SDS011;964;42.606;23.588;2023-02-10T01:08:09;27.25;;;13.05;;
1925;SDS011;964;42.606;23.588;2023-02-10T01:10:36;27.87;;;11.60;;
1925;SDS011;964;42.606;23.588;2023-02-10T01:13:03;11.23;;;4.17;;
1925;SDS011;964;42.606;23.588;2023-02-10T01:15:32;11.00;;;6.70;;
1925;SDS011;964;42.606;23.588;2023-02-10T01:17:59;8.00;;;4.00;;
1925;SDS011;964;42.606;23.588;2023-02-10T01:20:26;11.20;;;6.00;;
1925;SDS011;964;42.606;23.588;2023-02-10T01:22:54;1.43;;;1.33;;
1925;SDS011;964;42.606;23.588;2023-02-10T01:25:21;4.43;;;3.97;;
1925;SDS011;964;42.606;23.588;2023-02-10T01:27:48;6.87;;;5.47;;
1925;SDS011;964;42.606;23.588;2023-02-10T01:30:14;14.63;;;6.23;;
1925;SDS011;964;42.606;23.588;2023-02-10T01:32:41;22.45;;;9.90;;
1925;SDS011;964;42.606;23.588;2023-02-10T01:35:08;10.30;;;5.80;;
1925;SDS011;964;42.606;23.588;2023-02-10T01:37:35;12.80;;;3.93;;
1925;SDS011;964;42.606;23.588;2023-02-10T01:40:04;9.77;;;5.90;;
1925;SDS011;964;42.606;23.588;2023-02-10T01:42:32;7.83;;;3.70;;
1925;SDS011;964;42.606;23.588;2023-02-10T01:47:50;12.90;;;3.70;;
1925;SDS011;964;42.606;23.588;2023-02-10T01:50:19;5.60;;;3.93;;
1925;SDS011;964;42.606;23.588;2023-02-10T01:52:48;15.63;;;5.13;;
1925;SDS011;964;42.606;23.588;2023-02-10T01:55:17;8.47;;;4.53;;
1925;SDS011;964;42.606;23.588;2023-02-10T01:57:49;5.60;;;3.60;;
1925;SDS011;964;42.606;23.588;2023-02-10T02:00:19;14.83;;;6.37;;
1925;SDS011;964;42.606;23.588;2023-02-10T02:02:46;7.63;;;3.50;;
1925;SDS011;964;42.606;23.588;2023-02-10T02:05:18;9.10;;;2.70;;
1925;SDS011;964;42.606;23.588;2023-02-10T02:07:57;2.93;;;2.50;;
1925;SDS011;964;42.606;23.588;2023-02-10T02:10:31;5.53;;;5.03;;
1925;SDS011;964;42.606;23.588;2023-02-10T02:13:08;5.80;;;3.43;;
1925;SDS011;964;42.606;23.588;2023-02-10T02:15:42;6.57;;;5.63;;
1925;SDS011;964;42.606;23.588;2023-02-10T02:18:15;4.33;;;3.97;;
1925;SDS011;964;42.606;23.588;2023-02-10T02:20:55;4.80;;;4.03;;
1925;SDS011;964;42.606;23.588;2023-02-10T02:23:57;14.13;;;6.88;;
1925;SDS011;964;42.606;23.588;2023-02-10T02:26:53;16.60;;;5.97;;
1925;SDS011;964;42.606;23.588;2023-02-10T02:29:44;7.00;;;3.67;;
1925;SDS011;964;42.606;23.588;2023-02-10T02:32:32;14.63;;;6.80;;
1925;SDS011;964;42.606;23.588;2023-02-10T02:35:03;13.20;;;5.53;;
1925;SDS011;964;42.606;23.588;2023-02-10T02:37:33;8.80;;;4.70;;
1925;SDS011;964;42.606;23.588;2023-02-10T02:40:03;8.27;;;4.80;;
1925;SDS011;964;42.606;23.588;2023-02-10T02:42:31;5.73;;;4.60;;
1925;SDS011;964;42.606;23.588;2023-02-10T02:44:59;8.93;;;4.27;;
1925;SDS011;964;42.606;23.588;2023-02-10T02:47:42;10.30;;;4.83;;
1925;SDS011;964;42.606;23.588;2023-02-10T02:50:20;17.37;;;5.10;;
1925;SDS011;964;42.606;23.588;2023-02-10T02:52:58;14.00;;;7.70;;
1925;SDS011;964;42.606;23.588;2023-02-10T02:55:35;7.63;;;5.10;;
1925;SDS011;964;42.606;23.588;2023-02-10T02:58:11;11.87;;;5.87;;
1925;SDS011;964;42.606;23.588;2023-02-10T03:00:42;11.40;;;6.10;;
1925;SDS011;964;42.606;23.588;2023-02-10T03:03:12;9.10;;;3.70;;
1925;SDS011;964;42.606;23.588;2023-02-10T03:05:40;8.60;;;4.63;;
1925;SDS011;964;42.606;23.588;2023-02-10T03:08:06;9.80;;;5.87;;
1925;SDS011;964;42.606;23.588;2023-02-10T03:10:33;12.93;;;5.73;;
1925;SDS011;964;42.606;23.588;2023-02-10T03:13:00;13.97;;;6.13;;
1925;SDS011;964;42.606;23.588;2023-02-10T03:15:26;11.10;;;6.33;;
1925;SDS011;964;42.606;23.588;2023-02-10T03:17:55;6.87;;;4.60;;
1925;SDS011;964;42.606;23.588;2023-02-10T03:20:23;8.53;;;3.83;;
1925;SDS011;964;42.606;23.588;2023-02-10T03:22:50;12.43;;;4.47;;
1925;SDS011;964;42.606;23.588;2023-02-10T03:25:17;7.30;;;3.57;;
1925;SDS011;964;42.606;23.588;2023-02-10T03:27:44;5.50;;;4.33;;
1925;SDS011;964;42.606;23.588;2023-02-10T03:30:10;5.67;;;5.17;;
1925;SDS011;964;42.606;23.588;2023-02-10T03:32:37;9.33;;;5.43;;
1925;SDS011;964;42.606;23.588;2023-02-10T03:35:04;18.83;;;11.10;;
1925;SDS011;964;42.606;23.588;2023-02-10T03:37:33;14.47;;;7.50;;
1925;SDS011;964;42.606;23.588;2023-02-10T03:39:59;17.97;;;9.33;;
1925;SDS011;964;42.606;23.588;2023-02-10T03:42:26;12.00;;;5.77;;
1925;SDS011;964;42.606;23.588;2023-02-10T03:44:52;11.13;;;5.17;;
1925;SDS011;964;42.606;23.588;2023-02-10T03:47:19;21.77;;;8.03;;
1925;SDS011;964;42.606;23.588;2023-02-10T03:49:46;16.80;;;6.80;;
1925;SDS011;964;42.606;23.588;2023-02-10T03:52:13;7.00;;;4.90;;
1925;SDS011;964;42.606;23.588;2023-02-10T03:54:41;6.80;;;4.47;;
1925;SDS011;964;42.606;23.588;2023-02-10T03:57:07;16.37;;;5.57;;
1925;SDS011;964;42.606;23.588;2023-02-10T03:59:34;16.50;;;6.43;;
1925;SDS011;964;42.606;23.588;2023-02-10T04:02:01;4.93;;;3.23;;
1925;SDS011;964;42.606;23.588;2023-02-10T04:04:28;7.40;;;5.23;;
1925;SDS011;964;42.606;23.588;2023-02-10T04:06:55;14.67;;;6.10;;
1925;SDS011;964;42.606;23.588;2023-02-10T04:09:22;9.07;;;5.90;;
1925;SDS011;964;42.606;23.588;2023-02-10T04:11:50;17.17;;;8.67;;
1925;SDS011;964;42.606;23.588;2023-02-10T04:14:17;13.10;;;6.13;;
1925;SDS011;964;42.606;23.588;2023-02-10T04:16:43;16.23;;;6.20;;
1925;SDS011;964;42.606;23.588;2023-02-10T04:19:10;4.40;;;3.10;;
1925;SDS011;964;42.606;23.588;2023-02-10T04:21:37;12.43;;;5.40;;
1925;SDS011;964;42.606;23.588;2023-02-10T04:24:03;11.77;;;5.63;;
1925;SDS011;964;42.606;23.588;2023-02-10T04:26:31;8.43;;;4.53;;
1925;SDS011;964;42.606;23.588;2023-02-10T04:28:59;13.50;;;7.50;;
1925;SDS011;964;42.606;23.588;2023-02-10T04:31:25;19.43;;;5.60;;
1925;SDS011;964;42.606;23.588;2023-02-10T04:33:52;21.53;;;7.50;;
1925;SDS011;964;42.606;23.588;2023-02-10T04:36:19;20.67;;;8.70;;
1925;SDS011;964;42.606;23.588;2023-02-10T04:38:46;7.50;;;5.53;;
1925;SDS011;964;42.606;23.588;2023-02-10T04:41:12;10.13;;;7.47;;
1925;SDS011;964;42.606;23.588;2023-02-10T04:43:39;28.53;;;12.47;;
1925;SDS011;964;42.606;23.588;2023-02-10T04:46:07;36.33;;;14.10;;
1925;SDS011;964;42.606;23.588;2023-02-10T04:48:34;28.73;;;12.60;;
1925;SDS011;964;42.606;23.588;2023-02-10T04:51:05;11.40;;;4.90;;
1925;SDS011;964;42.606;23.588;2023-02-10T04:53:32;10.37;;;5.67;;
1925;SDS011;964;42.606;23.588;2023-02-10T04:55:59;9.83;;;4.50;;
1925;SDS011;964;42.606;23.588;2023-02-10T04:58:26;9.10;;;5.57;;
1925;SDS011;964;42.606;23.588;2023-02-10T05:00:53;5.93;;;4.93;;
1925;SDS011;964;42.606;23.588;2023-02-10T05:03:22;7.43;;;5.10;;
1925;SDS011;964;42.606;23.588;2023-02-10T05:05:48;7.07;;;5.17;;
1925;SDS011;964;42.606;23.588;2023-02-10T05:08:16;7.93;;;4.65;;
1925;SDS011;964;42.606;23.588;2023-02-10T05:10:46;8.70;;;5.30;;
1925;SDS011;964;42.606;23.588;2023-02-10T05:13:12;8.53;;;4.97;;
1925;SDS011;964;42.606;23.588;2023-02-10T05:15:39;6.77;;;5.17;;
1925;SDS011;964;42.606;23.588;2023-02-10T05:18:06;2.93;;;2.67;;
1925;SDS011;964;42.606;23.588;2023-02-10T05:20:34;5.13;;;3.07;;
1925;SDS011;964;42.606;23.588;2023-02-10T05:23:00;5.15;;;3.35;;
1925;SDS011;964;42.606;23.588;2023-02-10T05:25:27;10.10;;;7.43;;
1925;SDS011;964;42.606;23.588;2023-02-10T05:27:54;14.23;;;7.57;;
1925;SDS011;964;42.606;23.588;2023-02-10T05:30:20;15.73;;;4.87;;
1925;SDS011;964;42.606;23.588;2023-02-10T05:32:47;10.67;;;4.60;;
1925;SDS011;964;42.606;23.588;2023-02-10T05:35:13;8.10;;;4.40;;
1925;SDS011;964;42.606;23.588;2023-02-10T05:37:42;9.67;;;5.60;;
1925;SDS011;964;42.606;23.588;2023-02-10T05:40:09;7.33;;;5.20;;
1925;SDS011;964;42.606;23.588;2023-02-10T05:42:36;7.03;;;6.43;;
1925;SDS011;964;42.606;23.588;2023-02-10T05:45:03;6.63;;;6.03;;
1925;SDS011;964;42.606;23.588;2023-02-10T05:47:30;14.70;;;6.40;;
1925;SDS011;964;42.606;23.588;2023-02-10T05:49:57;10.23;;;4.83;;
1925;SDS011;964;42.606;23.588;2023-02-10T05:55:46;4.03;;;2.53;;
1925;SDS011;964;42.606;23.588;2023-02-10T05:58:13;8.87;;;4.10;;
1925;SDS011;964;42.606;23.588;2023-02-10T06:00:40;2.03;;;1.90;;
1925;SDS011;964;42.606;23.588;2023-02-10T06:03:06;3.50;;;3.20;;
1925;SDS011;964;42.606;23.588;2023-02-10T06:05:33;14.77;;;6.47;;
1925;SDS011;964;42.606;23.588;2023-02-10T06:08:00;22.37;;;13.20;;
1925;SDS011;964;42.606;23.588;2023-02-10T06:10:26;99.80;;;45.30;;
1925;SDS011;964;42.606;23.588;2023-02-10T06:12:54;173.00;;;60.87;;
1925;SDS011;964;42.606;23.588;2023-02-10T06:15:21;160.80;;;68.00;;
1925;SDS011;964;42.606;23.588;2023-02-10T06:17:48;133.43;;;52.17;;
1925;SDS011;964;42.606;23.588;2023-02-10T06:20:14;129.20;;;54.23;;
1925;SDS011;964;42.606;23.588;2023-02-10T06:22:41;191.43;;;68.47;;
1925;SDS011;964;42.606;23.588;2023-02-10T06:25:08;164.53;;;67.37;;
1925;SDS011;964;42.606;23.588;2023-02-10T06:27:35;177.53;;;68.73;;
1925;SDS011;964;42.606;23.588;2023-02-10T06:30:03;190.00;;;70.07;;
1925;SDS011;964;42.606;23.588;2023-02-10T06:32:30;75.87;;;32.10;;
1925;SDS011;964;42.606;23.588;2023-02-10T06:34:57;36.87;;;17.20;;
1925;SDS011;964;42.606;23.588;2023-02-10T06:37:23;20.80;;;10.80;;
1925;SDS011;964;42.606;23.588;2023-02-10T06:39:50;11.10;;;7.50;;
1925;SDS011;964;42.606;23.588;2023-02-10T06:42:17;18.10;;;9.50;;
1925;SDS011;964;42.606;23.588;2023-02-10T06:44:44;13.33;;;8.70;;
1925;SDS011;964;42.606;23.588;2023-02-10T06:47:12;17.23;;;10.07;;
1925;SDS011;964;42.606;23.588;2023-02-10T06:49:38;15.20;;;9.50;;
1925;SDS011;964;42.606;23.588;2023-02-10T06:52:05;17.63;;;9.70;;
1925;SDS011;964;42.606;23.588;2023-02-10T06:54:31;14.13;;;9.43;;
1925;SDS011;964;42.606;23.588;2023-02-10T06:56:58;16.50;;;9.80;;
1925;SDS011;964;42.606;23.588;2023-02-10T06:59:25;16.53;;;10.60;;
1925;SDS011;964;42.606;23.588;2023-02-10T07:01:52;21.83;;;11.67;;
1925;SDS011;964;42.606;23.588;2023-02-10T07:04:26;16.60;;;11.33;;
1925;SDS011;964;42.606;23.588;2023-02-10T07:06:53;19.93;;;11.63;;
1925;SDS011;964;42.606;23.588;2023-02-10T07:09:19;17.47;;;10.43;;
1925;SDS011;964;42.606;23.588;2023-02-10T07:11:46;18.90;;;10.83;;
1925;SDS011;964;42.606;23.588;2023-02-10T07:14:13;22.67;;;11.80;;
1925;SDS011;964;42.606;23.588;2023-02-10T07:16:40;18.57;;;11.93;;
1925;SDS011;964;42.606;23.588;2023-02-10T07:19:07;19.30;;;12.77;;
1925;SDS011;964;42.606;23.588;2023-02-10T07:21:35;22.03;;;13.73;;
1925;SDS011;964;42.606;23.588;2023-02-10T07:24:03;24.03;;;12.20;;
1925;SDS011;964;42.606;23.588;2023-02-10T07:26:30;25.83;;;12.83;;
1925;SDS011;964;42.606;23.588;2023-02-10T07:28:57;16.33;;;12.27;;
1925;SDS011;964;42.606;23.588;2023-02-10T07:31:24;19.40;;;12.93;;
1925;SDS011;964;42.606;23.588;2023-02-10T07:33:51;21.57;;;13.20;;
1925;SDS011;964;42.606;23.588;2023-02-10T07:36:17;19.97;;;12.80;;
1925;SDS011;964;42.606;23.588;2023-02-10T07:38:45;23.40;;;12.13;;
1925;SDS011;964;42.606;23.588;2023-02-10T07:41:12;20.23;;;13.13;;
1925;SDS011;964;42.606;23.588;2023-02-10T07:43:39;21.30;;;13.07;;
1925;SDS011;964;42.606;23.588;2023-02-10T07:46:05;22.53;;;12.40;;
1925;SDS011;964;42.606;23.588;2023-02-10T07:48:32;24.03;;;13.50;;
1925;SDS011;964;42.606;23.588;2023-02-10T07:50:59;18.13;;;12.50;;
1925;SDS011;964;42.606;23.588;2023-02-10T07:53:26;22.97;;;14.20;;
1925;SDS011;964;42.606;23.588;2023-02-10T07:55:54;19.70;;;12.90;;
1925;SDS011;964;42.606;23.588;2023-02-10T07:58:24;22.37;;;14.47;;
1925;SDS011;964;42.606;23.588;2023-02-10T08:00:50;18.90;;;13.20;;
1925;SDS011;964;42.606;23.588;2023-02-10T08:03:17;20.43;;;12.43;;
1925;SDS011;964;42.606;23.588;2023-02-10T08:05:44;20.70;;;13.10;;
1925;SDS011;964;42.606;23.588;2023-02-10T08:08:12;23.80;;;13.17;;
1925;SDS011;964;42.606;23.588;2023-02-10T08:10:39;19.07;;;12.67;;
1925;SDS011;964;42.606;23.588;2023-02-10T08:13:07;18.37;;;12.90;;
1925;SDS011;964;42.606;23.588;2023-02-10T08:15:34;21.47;;;13.33;;
1925;SDS011;964;42.606;23.588;2023-02-10T08:18:01;19.10;;;13.90;;
1925;SDS011;964;42.606;23.588;2023-02-10T08:20:28;21.10;;;14.27;;
1925;SDS011;964;42.606;23.588;2023-02-10T08:22:55;20.80;;;14.10;;
1925;SDS011;964;42.606;23.588;2023-02-10T08:25:22;18.43;;;11.80;;
1925;SDS011;964;42.606;23.588;2023-02-10T08:27:48;19.77;;;13.40;;
1925;SDS011;964;42.606;23.588;2023-02-10T08:30:17;23.63;;;14.90;;
1925;SDS011;964;42.606;23.588;2023-02-10T08:32:44;21.37;;;13.07;;
1925;SDS011;964;42.606;23.588;2023-02-10T08:35:10;23.67;;;14.40;;
1925;SDS011;964;42.606;23.588;2023-02-10T08:37:37;21.30;;;14.10;;
1925;SDS011;964;42.606;23.588;2023-02-10T08:40:04;23.17;;;15.20;;
1925;SDS011;964;42.606;23.588;2023-02-10T08:42:31;21.43;;;14.23;;
1925;SDS011;964;42.606;23.588;2023-02-10T08:44:58;23.40;;;14.40;;
1925;SDS011;964;42.606;23.588;2023-02-10T08:47:26;19.20;;;14.83;;
1925;SDS011;964;42.606;23.588;2023-02-10T08:49:53;19.53;;;12.70;;
1925;SDS011;964;42.606;23.588;2023-02-10T08:52:20;21.57;;;13.40;;
1925;SDS011;964;42.606;23.588;2023-02-10T08:54:48;22.90;;;14.20;;
1925;SDS011;964;42.606;23.588;2023-02-10T08:57:15;18.87;;;13.33;;
1925;SDS011;964;42.606;23.588;2023-02-10T08:59:41;18.90;;;13.93;;
1925;SDS011;964;42.606;23.588;2023-02-10T09:02:09;20.83;;;13.70;;
1925;SDS011;964;42.606;23.588;2023-02-10T09:04:37;23.60;;;15.37;;
1925;SDS011;964;42.606;23.588;2023-02-10T09:07:04;20.77;;;14.00;;
1925;SDS011;964;42.606;23.588;2023-02-10T09:09:31;20.43;;;13.77;;
1925;SDS011;964;42.606;23.588;2023-02-10T09:12:02;22.93;;;14.80;;
1925;SDS011;964;42.606;23.588;2023-02-10T09:14:30;17.90;;;12.63;;
1925;SDS011;964;42.606;23.588;2023-02-10T09:16:57;22.70;;;13.63;;
1925;SDS011;964;42.606;23.588;2023-02-10T09:19:24;21.55;;;14.10;;
1925;SDS011;964;42.606;23.588;2023-02-10T09:21:52;21.40;;;13.80;;
1925;SDS011;964;42.606;23.588;2023-02-10T09:24:20;18.53;;;12.40;;
1925;SDS011;964;42.606;23.588;2023-02-10T09:26:47;18.87;;;12.30;;
1925;SDS011;964;42.606;23.588;2023-02-10T09:29:13;23.70;;;13.93;;
1925;SDS011;964;42.606;23.588;2023-02-10T09:31:40;19.95;;;13.43;;
1925;SDS011;964;42.606;23.588;2023-02-10T09:34:07;20.30;;;13.80;;
1925;SDS011;964;42.606;23.588;2023-02-10T09:36:34;22.33;;;13.57;;
1925;SDS011;964;42.606;23.588;2023-02-10T09:39:02;20.80;;;12.63;;
1925;SDS011;964;42.606;23.588;2023-02-10T09:41:34;18.50;;;12.23;;
1925;SDS011;964;42.606;23.588;2023-02-10T09:44:09;20.42;;;13.80;;
1925;SDS011;964;42.606;23.588;2023-02-10T09:46:50;18.20;;;12.57;;
1925;SDS011;964;42.606;23.588;2023-02-10T09:52:20;20.80;;;12.33;;
1925;SDS011;964;42.606;23.588;2023-02-10T09:54:56;22.77;;;12.50;;
1925;SDS011;964;42.606;23.588;2023-02-10T09:57:26;17.97;;;13.07;;
1925;SDS011;964;42.606;23.588;2023-02-10T10:00:01;20.20;;;12.87;;
1925;SDS011;964;42.606;23.588;2023-02-10T10:02:30;21.23;;;14.07;;
1925;SDS011;964;42.606;23.588;2023-02-10T10:04:59;21.20;;;13.17;;
1925;SDS011;964;42.606;23.588;2023-02-10T10:07:40;18.77;;;13.37;;
1925;SDS011;964;42.606;23.588;2023-02-10T10:10:12;20.10;;;13.50;;
1925;SDS011;964;42.606;23.588;2023-02-10T10:12:43;19.77;;;13.47;;
1925;SDS011;964;42.606;23.588;2023-02-10T10:15:13;20.53;;;14.33;;
1925;SDS011;964;42.606;23.588;2023-02-10T10:17:47;19.57;;;13.37;;
1925;SDS011;964;42.606;23.588;2023-02-10T10:20:37;23.70;;;14.77;;
1925;SDS011;964;42.606;23.588;2023-02-10T10:23:23;22.23;;;13.03;;
1925;SDS011;964;42.606;23.588;2023-02-10T10:26:11;20.00;;;13.07;;
1925;SDS011;964;42.606;23.588;2023-02-10T10:28:54;16.70;;;12.07;;
1925;SDS011;964;42.606;23.588;2023-02-10T12:27:07;12.03;;;8.63;;
1925;SDS011;964;42.606;23.588;2023-02-10T12:29:43;13.47;;;8.20;;
1925;SDS011;964;42.606;23.588;2023-02-10T12:32:20;11.33;;;8.70;;
1925;SDS011;964;42.606;23.588;2023-02-10T12:34:59;14.00;;;9.90;;
1925;SDS011;964;42.606;23.588;2023-02-10T12:37:36;13.57;;;8.87;;
1925;SDS011;964;42.606;23.588;2023-02-10T12:43:08;22.00;;;9.40;;
1925;SDS011;964;42.606;23.588;2023-02-10T12:45:54;12.23;;;8.90;;
1925;SDS011;964;42.606;23.588;2023-02-10T12:48:28;13.13;;;9.77;;
1925;SDS011;964;42.606;23.588;2023-02-10T12:51:03;13.07;;;9.60;;
1925;SDS011;964;42.606;23.588;2023-02-10T12:53:41;15.87;;;9.50;;
1925;SDS011;964;42.606;23.588;2023-02-10T12:56:13;13.20;;;8.77;;
1925;SDS011;964;42.606;23.588;2023-02-10T12:58:47;14.03;;;8.97;;
1925;SDS011;964;42.606;23.588;2023-02-10T13:01:21;12.40;;;8.90;;
1925;SDS011;964;42.606;23.588;2023-02-10T13:03:53;14.97;;;9.47;;
1925;SDS011;964;42.606;23.588;2023-02-10T13:06:30;15.30;;;10.40;;
1925;SDS011;964;42.606;23.588;2023-02-10T13:09:03;15.13;;;9.33;;
1925;SDS011;964;42.606;23.588;2023-02-10T13:11:36;13.10;;;9.87;;
1925;SDS011;964;42.606;23.588;2023-02-10T13:14:11;15.63;;;9.93;;
1925;SDS011;964;42.606;23.588;2023-02-10T13:16:43;14.87;;;10.30;;
1925;SDS011;964;42.606;23.588;2023-02-10T13:19:20;17.10;;;10.53;;
1925;SDS011;964;42.606;23.588;2023-02-10T13:21:54;14.20;;;9.40;;
1925;SDS011;964;42.606;23.588;2023-02-10T13:24:29;11.63;;;9.40;;
1925;SDS011;964;42.606;23.588;2023-02-10T13:27:08;12.03;;;8.83;;
1925;SDS011;964;42.606;23.588;2023-02-10T13:29:50;13.60;;;8.40;;
1925;SDS011;964;42.606;23.588;2023-02-10T13:32:29;12.57;;;9.60;;
1925;SDS011;964;42.606;23.588;2023-02-10T13:35:07;13.00;;;8.73;;
1925;SDS011;964;42.606;23.588;2023-02-10T13:37:39;12.17;;;9.10;;
1925;SDS011;964;42.606;23.588;2023-02-10T13:40:12;14.63;;;9.20;;
1925;SDS011;964;42.606;23.588;2023-02-10T13:42:46;9.90;;;7.60;;
1925;SDS011;964;42.606;23.588;2023-02-10T13:45:17;11.33;;;8.23;;
1925;SDS011;964;42.606;23.588;2023-02-10T13:47:50;12.50;;;8.20;;
1925;SDS011;964;42.606;23.588;2023-02-10T13:50:20;11.57;;;8.30;;
1925;SDS011;964;42.606;23.588;2023-02-10T13:52:51;14.87;;;8.67;;
1925;SDS011;964;42.606;23.588;2023-02-10T14:01:00;9.37;;;7.40;;
1925;SDS011;964;42.606;23.588;2023-02-10T14:03:29;14.27;;;7.10;;
1925;SDS011;964;42.606;23.588;2023-02-10T14:05:57;10.67;;;6.37;;
1925;SDS011;964;42.606;23.588;2023-02-10T14:08:27;10.83;;;8.03;;
1925;SDS011;964;42.606;23.588;2023-02-10T14:10:57;13.57;;;7.00;;
1925;SDS011;964;42.606;23.588;2023-02-10T14:13:25;13.87;;;7.77;;
1925;SDS011;964;42.606;23.588;2023-02-10T14:15:57;12.70;;;7.00;;
1925;SDS011;964;42.606;23.588;2023-02-10T14:18:27;13.10;;;7.90;;
1925;SDS011;964;42.606;23.588;2023-02-10T14:20:55;11.20;;;6.83;;
1925;SDS011;964;42.606;23.588;2023-02-10T14:23:24;12.67;;;7.83;;
1925;SDS011;964;42.606;23.588;2023-02-10T14:25:55;10.30;;;7.50;;
1925;SDS011;964;42.606;23.588;2023-02-10T14:28:25;11.00;;;7.60;;
1925;SDS011;964;42.606;23.588;2023-02-10T14:30:55;13.90;;;8.17;;
1925;SDS011;964;42.606;23.588;2023-02-10T14:33:27;8.93;;;6.63;;
1925;SDS011;964;42.606;23.588;2023-02-10T14:35:55;13.27;;;8.07;;
1925;SDS011;964;42.606;23.588;2023-02-10T14:38:24;10.90;;;8.20;;
1925;SDS011;964;42.606;23.588;2023-02-10T14:40:53;12.70;;;7.90;;
1925;SDS011;964;42.606;23.588;2023-02-10T14:43:22;15.10;;;8.07;;
1925;SDS011;964;42.606;23.588;2023-02-10T14:45:52;13.77;;;8.83;;
1925;SDS011;964;42.606;23.588;2023-02-10T14:48:20;16.57;;;9.30;;
1925;SDS011;964;42.606;23.588;2023-02-10T14:51:03;16.03;;;9.47;;
1925;SDS011;964;42.606;23.588;2023-02-10T14:53:34;21.23;;;9.30;;
1925;SDS011;964;42.606;23.588;2023-02-10T14:56:05;16.97;;;9.67;;
1925;SDS011;964;42.606;23.588;2023-02-10T14:58:32;21.60;;;9.70;;
1925;SDS011;964;42.606;23.588;2023-02-10T15:01:01;18.03;;;9.20;;
1925;SDS011;964;42.606;23.588;2023-02-10T15:03:32;16.80;;;9.00;;
1925;SDS011;964;42.606;23.588;2023-02-10T15:05:59;24.97;;;8.80;;
1925;SDS011;964;42.606;23.588;2023-02-10T15:08:36;16.20;;;7.57;;
1925;SDS011;964;42.606;23.588;2023-02-10T15:11:09;17.77;;;8.93;;
1925;SDS011;964;42.606;23.588;2023-02-10T15:13:42;14.60;;;8.57;;
1925;SDS011;964;42.606;23.588;2023-02-10T15:16:12;19.00;;;8.83;;
1925;SDS011;964;42.606;23.588;2023-02-10T15:18:42;152.10;;;47.80;;
1925;SDS011;964;42.606;23.588;2023-02-10T15:21:26;103.07;;;37.87;;
1925;SDS011;964;42.606;23.588;2023-02-10T15:23:59;127.23;;;42.57;;
1925;SDS011;964;42.606;23.588;2023-02-10T15:26:26;80.50;;;26.17;;
1925;SDS011;964;42.606;23.588;2023-02-10T15:29:03;103.57;;;28.90;;
1925;SDS011;964;42.606;23.588;2023-02-10T15:31:31;78.60;;;25.87;;
1925;SDS011;964;42.606;23.588;2023-02-10T15:33:59;48.90;;;19.20;;
1925;SDS011;964;42.606;23.588;2023-02-10T15:36:27;40.73;;;16.70;;
1925;SDS011;964;42.606;23.588;2023-02-10T15:39:01;35.47;;;15.27;;
1925;SDS011;964;42.606;23.588;2023-02-10T15:41:31;50.17;;;15.83;;
1925;SDS011;964;42.606;23.588;2023-02-10T15:44:03;61.10;;;21.50;;
1925;SDS011;964;42.606;23.588;2023-02-10T15:46:31;67.20;;;24.90;;
1925;SDS011;964;42.606;23.588;2023-02-10T15:49:06;76.27;;;25.30;;
1925;SDS011;964;42.606;23.588;2023-02-10T15:51:36;86.93;;;20.53;;
1925;SDS011;964;42.606;23.588;2023-02-10T15:54:07;45.73;;;17.30;;
1925;SDS011;964;42.606;23.588;2023-02-10T15:56:38;92.43;;;27.47;;
1925;SDS011;964;42.606;23.588;2023-02-10T15:59:05;101.07;;;32.03;;
1925;SDS011;964;42.606;23.588;2023-02-10T16:01:39;67.23;;;23.47;;
1925;SDS011;964;42.606;23.588;2023-02-10T16:04:05;83.27;;;29.60;;
1925;SDS011;964;42.606;23.588;2023-02-10T16:06:32;55.40;;;20.60;;
1925;SDS011;964;42.606;23.588;2023-02-10T16:09:01;68.67;;;25.23;;
1925;SDS011;964;42.606;23.588;2023-02-10T16:11:29;33.73;;;15.17;;
1925;SDS011;964;42.606;23.588;2023-02-10T16:13:55;49.50;;;19.57;;
1925;SDS011;964;42.606;23.588;2023-02-10T16:16:22;68.77;;;23.33;;
1925;SDS011;964;42.606;23.588;2023-02-10T16:18:49;50.40;;;21.00;;
1925;SDS011;964;42.606;23.588;2023-02-10T16:21:16;51.30;;;20.67;;
1925;SDS011;964;42.606;23.588;2023-02-10T16:23:43;50.97;;;19.27;;
1925;SDS011;964;42.606;23.588;2023-02-10T16:26:11;47.50;;;20.73;;
1925;SDS011;964;42.606;23.588;2023-02-10T16:28:48;54.47;;;22.30;;
1925;SDS011;964;42.606;23.588;2023-02-10T16:31:15;37.50;;;18.00;;
1925;SDS011;964;42.606;23.588;2023-02-10T16:33:43;34.93;;;15.80;;
1925;SDS011;964;42.606;23.588;2023-02-10T16:36:11;35.30;;;13.50;;
1925;SDS011;964;42.606;23.588;2023-02-10T16:38:39;24.10;;;13.53;;
1925;SDS011;964;42.606;23.588;2023-02-10T16:41:06;31.10;;;12.93;;
1925;SDS011;964;42.606;23.588;2023-02-10T16:43:33;49.07;;;21.47;;
1925;SDS011;964;42.606;23.588;2023-02-10T16:46:01;34.07;;;17.73;;
1925;SDS011;964;42.606;23.588;2023-02-10T16:48:28;39.57;;;16.80;;
1925;SDS011;964;42.606;23.588;2023-02-10T16:50:54;63.90;;;25.90;;
1925;SDS011;964;42.606;23.588;2023-02-10T16:53:21;49.40;;;22.70;;
1925;SDS011;964;42.606;23.588;2023-02-10T16:55:48;23.07;;;12.90;;
1925;SDS011;964;42.606;23.588;2023-02-10T16:58:15;28.83;;;12.47;;
1925;SDS011;964;42.606;23.588;2023-02-10T17:00:43;19.07;;;9.80;;
1925;SDS011;964;42.606;23.588;2023-02-10T17:03:11;24.40;;;12.30;;
1925;SDS011;964;42.606;23.588;2023-02-10T17:05:38;24.10;;;10.27;;
1925;SDS011;964;42.606;23.588;2023-02-10T17:08:05;42.03;;;13.80;;
1925;SDS011;964;42.606;23.588;2023-02-10T17:10:32;67.40;;;23.17;;
1925;SDS011;964;42.606;23.588;2023-02-10T17:12:58;71.70;;;27.50;;
1925;SDS011;964;42.606;23.588;2023-02-10T17:15:25;42.83;;;17.73;;
1925;SDS011;964;42.606;23.588;2023-02-10T17:17:52;9.00;;;6.87;;
1925;SDS011;964;42.606;23.588;2023-02-10T17:20:21;17.37;;;11.20;;
1925;SDS011;964;42.606;23.588;2023-02-10T17:22:49;32.27;;;16.80;;
1925;SDS011;964;42.606;23.588;2023-02-10T17:25:16;28.70;;;14.13;;